Time;durP1;ratioP1;P1;durP2;ratioP2;P2;SDS_P1;SDS_P2;PMS_P1;PMS_P2;Temp;Humidity;BMP_temperature;BMP_pressure;BME280_temperature;BME280_humidity;BME280_pressure;Samples;Min_cycle;Max_cycle;Signal;HPM_P1;HPM_P2
2021/09/20 00:01:09;;;;;;;3.03;2.73;;;24.00;56.80;;;;;;6264358;23;20373;-89
2021/09/20 00:03:35;;;;;;;2.93;2.63;;;24.10;56.90;;;;;;6236964;23;20933;-89
2021/09/20 00:06:05;;;;;;;3.13;2.83;;;24.10;56.90;;;;;;6237525;23;20373;-89
2021/09/20 00:08:31;;;;;;;3.20;2.90;;;24.10;56.90;;;;;;6264779;23;20138;-89
2021/09/20 00:11:02;;;;;;;3.50;3.07;;;24.00;56.80;;;;;;6238000;23;20927;-89
2021/09/20 00:13:38;;;;;;;;;;;;;;;;;;;;;
2021/09/20 00:19:26;;;;;;;4.07;3.37;;;24.10;56.90;;;;;;6141830;23;20385;-89
2021/09/20 00:21:54;;;;;;;3.13;2.83;;;24.00;57.00;;;;;;6142369;23;20385;-89
2021/09/20 00:24:20;;;;;;;3.30;3.00;;;24.00;57.00;;;;;;6141572;23;20499;-89
2021/09/20 00:26:46;;;;;;;3.03;2.73;;;24.00;57.00;;;;;;6141682;23;20381;-89
2021/09/20 00:29:15;;;;;;;4.10;3.07;;;24.00;57.00;;;;;;6141799;23;20380;-89
2021/09/20 00:31:46;;;;;;;4.00;3.17;;;24.00;56.90;;;;;;6141405;23;20377;-89
2021/09/20 00:34:12;;;;;;;3.80;3.10;;;24.00;56.90;;;;;;6142065;23;20478;-89
2021/09/20 00:36:41;;;;;;;3.53;2.90;;;24.00;56.90;;;;;;6141055;23;20397;-88
2021/09/20 00:42:31;;;;;;;3.03;2.67;;;24.00;56.90;;;;;;6136053;23;20389;-88
2021/09/20 00:45:27;;;;;;;;;;;;;;;;;;;;;
2021/09/20 00:47:53;;;;;;;2.80;2.47;;;24.00;57.00;;;;;;6223156;23;20382;-89
2021/09/20 00:50:19;;;;;;;4.30;2.83;;;24.00;57.00;;;;;;6206815;23;20378;-89
2021/09/20 00:52:52;;;;;;;3.53;3.23;;;24.00;57.00;;;;;;6207161;23;20382;-89
2021/09/20 00:55:22;;;;;;;3.30;2.93;;;24.00;57.00;;;;;;6232272;23;20351;-88
2021/09/20 00:57:49;;;;;;;3.90;3.00;;;24.00;56.90;;;;;;6206874;23;20413;-89
2021/09/20 01:00:21;;;;;;;3.53;2.87;;;24.00;56.90;;;;;;6233156;23;20378;-89
2021/09/20 01:03:04;;;;;;;4.03;2.87;;;24.00;56.90;;;;;;6207364;23;20378;-88
2021/09/20 01:05:37;;;;;;;3.30;2.90;;;24.00;56.90;;;;;;6204793;23;20937;-88
2021/09/20 01:08:03;;;;;;;2.70;2.40;;;24.00;56.90;;;;;;6204759;23;20386;-88
2021/09/20 01:10:29;;;;;;;2.50;2.30;;;23.90;56.90;;;;;;6204841;23;20389;-88
2021/09/20 01:12:59;;;;;;;3.33;3.03;;;24.00;56.90;;;;;;6204337;23;20699;-88
2021/09/20 01:15:31;;;;;;;3.27;2.97;;;24.00;56.90;;;;;;6204761;23;20386;-87
2021/09/20 01:17:57;;;;;;;3.50;2.87;;;24.00;56.90;;;;;;6203847;23;20382;-88
2021/09/20 01:20:23;;;;;;;2.70;2.50;;;24.00;56.90;;;;;;6231031;23;20382;-87
2021/09/20 01:23:22;;;;;;;3.60;2.93;;;24.00;56.90;;;;;;6204490;23;20232;-88
2021/09/20 01:25:56;;;;;;;4.17;3.27;;;24.00;56.90;;;;;;6231412;23;20167;-87
2021/09/20 01:28:25;;;;;;;3.03;2.67;;;24.00;56.90;;;;;;6205778;23;20779;-87
2021/09/20 01:30:51;;;;;;;3.00;2.37;;;23.90;56.80;;;;;;6205444;23;20417;-87
2021/09/20 01:33:23;;;;;;;3.23;2.93;;;23.90;56.80;;;;;;6205183;23;20377;-88
2021/09/20 01:35:54;;;;;;;3.27;2.97;;;23.90;56.80;;;;;;6204260;23;20425;-87
2021/09/20 01:38:22;;;;;;;3.00;2.63;;;23.90;56.80;;;;;;6231939;23;20466;-87
2021/09/20 01:40:51;;;;;;;3.30;2.80;;;23.90;56.90;;;;;;6205030;23;20374;-87
2021/09/20 01:43:21;;;;;;;3.20;2.73;;;23.90;56.90;;;;;;6216978;23;20409;-86
2021/09/20 01:45:47;;;;;;;2.80;2.60;;;23.90;56.90;;;;;;6231208;23;20359;-88
2021/09/20 01:48:21;;;;;;;2.83;2.53;;;23.90;56.90;;;;;;6229112;23;20382;-88
2021/09/20 01:50:47;;;;;;;3.60;2.80;;;23.90;56.90;;;;;;6229397;23;20158;-88
2021/09/20 01:53:21;;;;;;;3.20;2.90;;;23.90;56.90;;;;;;6228968;23;20734;-88
2021/09/20 01:55:50;;;;;;;3.13;2.40;;;23.90;57.50;;;;;;6228594;23;20377;-89
2021/09/20 01:58:22;;;;;;;3.20;2.63;;;23.90;56.90;;;;;;6230850;23;20393;-89
2021/09/20 02:00:50;;;;;;;2.50;2.30;;;23.90;57.00;;;;;;6232642;23;20408;-89
2021/09/20 02:03:19;;;;;;;3.23;2.10;;;23.90;57.00;;;;;;6230378;23;20393;-88
2021/09/20 02:05:53;;;;;;;2.83;2.53;;;23.90;57.00;;;;;;6230785;23;20389;-88
2021/09/20 02:08:30;;;;;;;2.87;2.50;;;23.90;57.00;;;;;;6230634;23;20464;-89
2021/09/20 02:11:11;;;;;;;;;;;;;;;;;;;;;
2021/09/20 02:13:37;;;;;;;3.83;2.73;;;23.90;57.00;;;;;;6232177;23;20342;-87
2021/09/20 02:16:10;;;;;;;3.00;2.33;;;23.80;57.00;;;;;;6231864;23;20386;-86
2021/09/20 02:18:42;;;;;;;2.90;2.63;;;23.80;57.00;;;;;;6234265;23;20382;-86
2021/09/20 02:21:15;;;;;;;2.60;2.40;;;23.80;57.00;;;;;;6235053;23;20366;-86
2021/09/20 02:23:49;;;;;;;3.20;2.83;;;23.80;57.00;;;;;;6234841;23;20449;-86
2021/09/20 02:26:17;;;;;;;3.33;2.97;;;23.80;57.00;;;;;;6233549;23;20378;-86
2021/09/20 02:28:43;;;;;;;3.10;2.70;;;23.80;57.10;;;;;;6234122;23;20382;-86
2021/09/20 02:31:13;;;;;;;2.83;2.63;;;23.80;57.10;;;;;;6233514;23;20383;-86
2021/09/20 02:33:42;;;;;;;3.30;2.57;;;23.80;57.10;;;;;;6237267;23;20705;-88
2021/09/20 02:36:11;;;;;;;3.00;2.63;;;23.80;57.10;;;;;;6236393;23;20370;-88
2021/09/20 02:38:39;;;;;;;2.90;2.57;;;23.80;57.10;;;;;;6235743;23;20382;-88
2021/09/20 02:41:05;;;;;;;3.10;2.53;;;23.80;57.10;;;;;;6235992;23;20157;-87
2021/09/20 02:43:38;;;;;;;4.03;3.73;;;23.80;57.00;;;;;;6240272;23;20401;-88
2021/09/20 02:46:07;;;;;;;3.07;2.77;;;23.80;57.10;;;;;;6240361;23;20376;-87
2021/09/20 02:48:33;;;;;;;2.97;2.70;;;23.80;57.00;;;;;;6240584;23;20408;-87
2021/09/20 02:51:00;;;;;;;3.00;2.60;;;23.80;57.10;;;;;;6267051;23;20903;-87
2021/09/20 02:53:26;;;;;;;3.93;3.03;;;23.80;57.10;;;;;;6240390;23;20851;-87
2021/09/20 02:55:52;;;;;;;2.90;2.60;;;23.80;57.10;;;;;;6240589;23;20400;-88
2021/09/20 02:58:18;;;;;;;2.60;2.40;;;23.80;57.00;;;;;;6240098;23;20388;-87
2021/09/20 03:00:47;;;;;;;3.20;2.40;;;23.80;57.60;;;;;;6240372;23;20373;-87
2021/09/20 03:03:13;;;;;;;2.43;2.23;;;23.80;57.10;;;;;;6215224;23;20385;-87
2021/09/20 03:05:39;;;;;;;2.50;2.30;;;23.80;57.10;;;;;;6240581;23;20432;-88
2021/09/20 03:08:05;;;;;;;2.70;2.40;;;23.80;57.10;;;;;;6214789;23;20387;-88
2021/09/20 03:10:32;;;;;;;2.70;2.50;;;23.80;57.10;;;;;;6267132;23;20345;-87
2021/09/20 03:12:58;;;;;;;3.20;2.73;;;23.80;57.10;;;;;;6266401;23;20824;-87
2021/09/20 03:15:24;;;;;;;2.93;2.63;;;23.80;57.10;;;;;;6240458;23;20453;-88
2021/09/20 03:17:50;;;;;;;3.30;2.70;;;23.80;57.10;;;;;;6240160;23;20157;-88
2021/09/20 03:20:17;;;;;;;3.00;2.70;;;23.70;57.00;;;;;;6240481;23;20412;-88
2021/09/20 03:22:43;;;;;;;3.67;3.23;;;23.80;57.10;;;;;;6239862;23;20180;-88
2021/09/20 03:25:10;;;;;;;2.60;2.40;;;23.80;57.20;;;;;;6239677;23;20423;-88
2021/09/20 03:27:37;;;;;;;3.77;3.07;;;23.70;57.00;;;;;;6240520;23;20377;-87
2021/09/20 03:30:06;;;;;;;3.03;2.40;;;23.80;57.10;;;;;;6239652;23;20381;-88
2021/09/20 03:32:32;;;;;;;2.50;2.30;;;23.80;57.10;;;;;;6266018;23;20429;-88
2021/09/20 03:34:58;;;;;;;3.10;2.50;;;23.80;57.10;;;;;;6239374;23;20408;-87
2021/09/20 03:37:27;;;;;;;3.57;2.90;;;23.70;57.00;;;;;;6239755;23;20177;-87
2021/09/20 03:39:52;;;;;;;3.00;2.47;;;23.80;57.70;;;;;;6240254;23;20154;-87
2021/09/20 03:42:18;;;;;;;3.20;2.90;;;23.70;57.00;;;;;;6266206;23;20400;-88
2021/09/20 03:44:44;;;;;;;3.50;2.77;;;23.70;57.00;;;;;;6239825;23;20186;-88
2021/09/20 03:50:32;;;;;;;2.57;2.33;;;23.80;57.10;;;;;;6266576;23;20194;-88
2021/09/20 03:52:58;;;;;;;2.47;2.27;;;23.70;57.10;;;;;;6240712;23;20374;-88
2021/09/20 03:55:25;;;;;;;2.87;2.57;;;23.70;57.10;;;;;;6266102;23;20381;-88
2021/09/20 03:57:51;;;;;;;3.33;3.03;;;23.70;57.20;;;;;;6239481;23;20158;-87
2021/09/20 04:00:17;;;;;;;3.20;2.90;;;23.70;57.10;;;;;;6239284;23;20380;-88
2021/09/20 04:02:43;;;;;;;3.03;2.73;;;23.70;57.10;;;;;;6239316;23;20151;-88
2021/09/20 04:05:11;;;;;;;3.30;2.97;;;23.70;57.10;;;;;;6266463;23;20447;-87
2021/09/20 04:07:42;;;;;;;2.67;2.47;;;23.70;57.10;;;;;;6239015;23;20146;-88
2021/09/20 04:10:11;;;;;;;4.30;3.57;;;23.70;57.20;;;;;;6239998;23;20441;-88
2021/09/20 04:12:38;;;;;;;3.10;2.50;;;23.70;57.20;;;;;;6238346;23;20381;-88
2021/09/20 04:15:07;;;;;;;2.50;2.30;;;23.70;57.20;;;;;;6211924;23;20392;-89
2021/09/20 04:17:34;;;;;;;3.63;3.10;;;23.70;57.20;;;;;;6236930;23;20386;-88
2021/09/20 04:20:00;;;;;;;3.13;2.60;;;23.70;57.20;;;;;;6238521;23;20416;-88
2021/09/20 04:22:26;;;;;;;3.07;2.77;;;23.70;57.20;;;;;;6264993;23;20373;-87
2021/09/20 04:24:52;;;;;;;3.47;2.83;;;23.70;57.20;;;;;;6264312;23;20174;-88
2021/09/20 04:27:20;;;;;;;3.40;3.10;;;23.70;57.10;;;;;;6238619;23;20389;-88
2021/09/20 04:29:48;;;;;;;5.20;3.77;;;23.70;57.10;;;;;;6239277;23;20400;-87
2021/09/20 04:32:15;;;;;;;3.50;3.10;;;23.70;57.00;;;;;;6266643;23;20370;-88
2021/09/20 04:34:43;;;;;;;3.37;3.07;;;23.80;57.10;;;;;;6241120;23;20400;-88
2021/09/20 04:37:40;;;;;;;5.20;3.80;;;23.70;57.50;;;;;;6267057;23;20391;-89
2021/09/20 04:39:58;;;;;;;3.73;3.43;;;23.80;57.00;;;;;;6260214;23;20377;-87
2021/09/20 04:42:24;;;;;;;4.37;3.43;;;23.80;57.00;;;;;;6239428;23;20416;-88
2021/09/20 04:44:53;;;;;;;3.77;3.10;;;23.80;57.00;;;;;;6266065;23;20428;-88
2021/09/20 04:47:19;;;;;;;4.60;4.20;;;23.80;56.90;;;;;;6241434;23;20381;-88
2021/09/20 04:49:45;;;;;;;4.80;3.80;;;23.80;56.80;;;;;;6267430;23;20356;-88
2021/09/20 04:52:23;;;;;;;5.00;3.97;;;23.80;56.70;;;;;;6267654;23;20377;-88
2021/09/20 04:54:49;;;;;;;4.33;3.93;;;23.80;56.70;;;;;;6218497;23;20146;-88
2021/09/20 04:57:15;;;;;;;3.83;3.43;;;23.80;56.70;;;;;;6241227;23;20407;-88
2021/09/20 04:59:48;;;;;;;5.40;4.00;;;23.80;56.70;;;;;;6241087;23;20765;-88
2021/09/20 05:02:14;;;;;;;4.60;3.83;;;23.80;56.70;;;;;;6267422;23;20532;-88
2021/09/20 05:04:40;;;;;;;4.00;3.60;;;23.80;56.70;;;;;;6266782;23;20424;-89
2021/09/20 05:07:09;;;;;;;4.50;4.10;;;23.80;56.70;;;;;;6235220;23;20382;-88
2021/09/20 05:10:01;;;;;;;5.37;4.23;;;23.80;56.70;;;;;;6235071;23;20146;-87
2021/09/20 05:12:52;;;;;;;5.13;3.83;;;23.90;56.80;;;;;;6260990;23;20377;-88
2021/09/20 05:15:23;;;;;;;3.70;3.37;;;23.80;56.70;;;;;;6235520;23;20381;-89
2021/09/20 05:21:29;;;;;;;4.10;3.70;;;23.90;56.80;;;;;;6239650;23;20381;-88
2021/09/20 05:24:28;;;;;;;4.70;4.20;;;23.80;56.70;;;;;;6231449;23;20417;-88
2021/09/20 05:26:57;;;;;;;4.93;3.43;;;23.80;56.70;;;;;;6259544;23;20380;-88
2021/09/20 05:29:35;;;;;;;4.20;3.80;;;23.80;56.70;;;;;;6233785;23;20373;-89
2021/09/20 05:46:45;;;;;;;;;;;;;;;;;;;;;
2021/09/20 05:56:25;;;;;;;4.17;3.87;;;23.80;56.70;;;;;;5914720;24;20379;-88
2021/09/20 05:59:28;;;;;;;;;;;;;;;;;;;;;
2021/09/20 06:03:14;;;;;;;;;;;;;;;;;;;;;
2021/09/20 06:06:09;;;;;;;3.83;3.50;;;23.80;56.70;;;;;;5965314;24;20462;-88
2021/09/20 06:12:45;;;;;;;3.77;3.47;;;23.80;56.70;;;;;;5969534;24;20426;-88
2021/09/20 06:29:43;;;;;;;;;;;;;;;;;;;;;
2021/09/20 06:38:57;;;;;;;3.43;3.13;;;23.90;56.80;;;;;;5950262;23;20363;-87
2021/09/20 06:41:58;;;;;;;3.00;2.80;;;23.80;56.80;;;;;;6027295;23;20415;-87
2021/09/20 06:48:29;;;;;;;;;;;;;;;;;;;;;
2021/09/20 06:51:14;;;;;;;4.00;3.70;;;23.90;56.80;;;;;;6042834;23;20435;-87
2021/09/20 07:08:00;;;;;;;;;;;;;;;;;;;;;
2021/09/20 07:14:05;;;;;;;3.30;3.00;;;23.90;56.80;;;;;;6105678;23;20350;-87
2021/09/20 07:16:57;;;;;;;2.80;2.60;;;23.90;56.80;;;;;;6080652;23;20519;-88
2021/09/20 07:47:20;;;;;;;;;;;;;;;;;;;;;
2021/09/20 08:31:09;;;;;;;3.47;3.17;;;23.90;56.80;;;;;;5974609;23;20440;-88
2021/09/20 09:54:43;;;;;;;;;;;;;;;;;;;;;
2021/09/20 10:09:19;;;;;;;3.53;3.23;;;24.00;56.00;;;;;;5686578;25;20419;-88
2021/09/20 10:26:03;;;;;;;4.60;4.20;;;24.00;55.90;;;;;;5762343;24;20448;-87
2021/09/20 10:53:31;;;;;;;;;;;;;;;;;;;;;
2021/09/20 11:04:12;;;;;;;4.30;3.90;;;24.00;55.60;;;;;;5755082;25;20389;-88
2021/09/20 11:13:35;;;;;;;4.50;4.10;;;24.00;55.50;;;;;;5724265;24;20406;-90
2021/09/20 11:17:01;;;;;;;3.47;3.17;;;24.00;55.50;;;;;;5750220;25;20406;-90
2021/09/20 11:27:02;;;;;;;3.80;3.50;;;24.00;55.40;;;;;;5807481;24;20410;-90
2021/09/20 11:29:32;;;;;;;4.43;4.03;;;24.00;55.30;;;;;;5882502;24;20397;-88
2021/09/20 11:32:34;;;;;;;4.23;3.87;;;23.90;55.20;;;;;;5884670;24;20472;-88
2021/09/20 11:49:45;;;;;;;3.53;3.23;;;24.00;55.10;;;;;;5778735;24;20376;-88
2021/09/20 11:53:05;;;;;;;3.93;3.53;;;24.00;55.10;;;;;;5780160;24;20392;-86
2021/09/20 13:00:15;;;;;;;10.53;9.63;;;24.00;55.10;;;;;;5968103;24;20409;-90
2021/09/20 13:06:33;;;;;;;10.30;9.40;;;24.00;55.10;;;;;;5939551;24;20472;-89
2021/09/20 13:16:03;;;;;;;10.20;9.30;;;24.00;55.10;;;;;;5930441;24;20371;-90
2021/09/20 13:42:54;;;;;;;10.17;9.17;;;24.00;55.20;;;;;;5998533;24;20386;-87
2021/09/20 14:05:55;;;;;;;9.73;8.83;;;24.00;55.10;;;;;;6110779;23;20827;-88
2021/09/20 14:18:34;;;;;;;8.70;8.00;;;24.00;55.20;;;;;;5993307;24;20412;-87
2021/09/20 14:21:48;;;;;;;9.33;8.50;;;24.00;55.30;;;;;;5969823;23;20504;-87
2021/09/20 14:24:36;;;;;;;8.80;8.00;;;24.00;55.20;;;;;;5969542;24;20445;-87
2021/09/20 14:34:44;;;;;;;;;;;;;;;;;;;;;
2021/09/20 14:37:19;;;;;;;8.73;7.93;;;24.00;55.00;;;;;;6113120;23;20397;-86
2021/09/20 14:39:47;;;;;;;9.20;8.30;;;24.00;55.00;;;;;;6114186;23;20413;-86
2021/09/20 14:48:51;;;;;;;;;;;;;;;;;;;;;
2021/09/20 14:54:14;;;;;;;7.77;7.07;;;24.10;54.90;;;;;;6202563;23;20420;-86
2021/09/20 15:03:10;;;;;;;6.83;6.23;;;24.20;54.60;;;;;;6202248;22;20346;-85
2021/09/20 15:05:45;;;;;;;6.10;5.60;;;24.00;52.80;;;;;;6202482;23;20498;-87
2021/09/20 15:29:04;;;;;;;7.73;4.60;;;23.50;51.20;;;;;;5936950;24;20407;-85
2021/09/20 15:31:33;;;;;;;4.73;4.33;;;23.50;51.60;;;;;;5936962;24;20746;-85
2021/09/20 15:34:01;;;;;;;5.47;5.00;;;23.50;51.70;;;;;;5935933;24;20391;-86
2021/09/20 15:36:27;;;;;;;5.00;4.50;;;23.50;50.00;;;;;;5962489;24;20406;-85
2021/09/20 15:38:53;;;;;;;5.83;4.67;;;23.50;51.40;;;;;;5992864;24;20400;-84
2021/09/20 15:41:21;;;;;;;4.97;4.57;;;23.50;51.70;;;;;;5991902;24;20196;-86
2021/09/20 15:43:48;;;;;;;6.03;5.47;;;23.40;50.80;;;;;;5992063;24;20165;-85
2021/09/20 15:46:42;;;;;;;4.47;4.10;;;23.50;51.40;;;;;;5990781;24;20389;-86
2021/09/20 15:49:08;;;;;;;5.33;4.83;;;23.40;51.00;;;;;;5968540;24;20390;-84
2021/09/20 15:51:39;;;;;;;5.03;4.53;;;23.40;51.10;;;;;;5991882;24;20409;-83
2021/09/20 15:57:35;;;;;;;5.70;4.80;;;23.40;51.30;;;;;;6068429;22;20452;-88
2021/09/20 16:00:01;;;;;;;4.93;4.53;;;23.40;51.60;;;;;;6231848;23;20439;-83
2021/09/20 16:09:11;;;;;;;5.40;4.90;;;23.40;52.00;;;;;;6138282;23;20442;-84
2021/09/20 16:11:41;;;;;;;4.47;4.10;;;23.40;52.10;;;;;;6112991;23;20389;-84
2021/09/20 16:32:44;;;;;;;4.60;4.20;;;23.40;52.50;;;;;;6195341;22;20444;31
2021/09/20 16:36:04;;;;;;;3.90;3.60;;;23.40;52.40;;;;;;6025498;23;20435;-82
2021/09/20 16:38:54;;;;;;;3.97;3.67;;;23.40;52.00;;;;;;6062038;23;20410;-86
2021/09/20 16:41:54;;;;;;;;;;;;;;;;;;;;;
2021/09/20 16:48:15;;;;;;;4.20;3.80;;;23.40;52.20;;;;;;6082238;23;20351;-89
2021/09/20 17:14:50;;;;;;;4.67;4.27;;;23.40;52.70;;;;;;6101567;22;20436;-88
2021/09/20 17:21:26;;;;;;;3.80;3.50;;;23.40;52.50;;;;;;6290382;22;20391;-88
2021/09/20 17:58:42;;;;;;;4.30;4.00;;;23.40;53.30;;;;;;5779070;24;20389;-87
2021/09/20 18:11:47;;;;;;;3.90;3.60;;;23.40;53.30;;;;;;5908293;24;20371;-87
2021/09/20 18:28:06;;;;;;;4.97;3.73;;;23.40;53.40;;;;;;5996862;24;20393;-87
2021/09/20 18:41:30;;;;;;;5.40;3.97;;;23.50;53.40;;;;;;6033341;23;20395;-86
2021/09/20 18:51:10;;;;;;;;;;;;;;;;;;;;;
2021/09/20 18:54:12;;;;;;;4.33;3.90;;;23.50;53.40;;;;;;6051601;23;20458;-86
2021/09/20 18:56:43;;;;;;;4.40;3.90;;;23.50;53.40;;;;;;6064891;23;20395;-85
2021/09/20 19:10:15;;;;;;;3.80;3.40;;;23.50;53.50;;;;;;6026068;23;20364;-86
2021/09/20 19:16:42;;;;;;;5.60;4.67;;;23.50;53.50;;;;;;6048440;23;20368;-86
2021/09/20 19:19:27;;;;;;;;;;;;;;;;;;;;;
2021/09/20 19:22:41;;;;;;;;;;;;;;;;;;;;;
2021/09/20 19:25:41;;;;;;;8.23;4.60;;;23.50;53.60;;;;;;6049249;23;20407;-86
2021/09/20 19:28:06;;;;;;;6.80;4.27;;;23.50;53.60;;;;;;6054270;23;20392;-86
2021/09/20 19:31:19;;;;;;;;;;;;;;;;;;;;;
2021/09/20 19:33:48;;;;;;;5.87;3.97;;;23.50;53.60;;;;;;6053532;23;20406;-86
2021/09/20 19:42:58;;;;;;;5.40;4.70;;;23.50;53.60;;;;;;6076962;23;20382;-87
2021/09/20 19:45:45;;;;;;;8.73;5.03;;;23.50;53.60;;;;;;6087303;23;20435;-86
2021/09/20 19:49:08;;;;;;;5.13;4.10;;;23.50;53.60;;;;;;6109822;23;20466;-86
2021/09/20 19:52:36;;;;;;;;;;;;;;;;;;;;;
2021/09/20 19:59:21;;;;;;;;;;;;;;;;;;;;;
2021/09/20 20:05:56;;;;;;;;;;;;;;;;;;;;;
2021/09/20 20:08:31;;;;;;;6.63;4.77;;;23.50;53.70;;;;;;6170415;23;20418;-86
2021/09/20 20:11:55;;;;;;;6.20;4.30;;;23.40;53.70;;;;;;6145559;23;20375;-86
2021/09/20 20:21:13;;;;;;;6.97;4.60;;;23.50;53.80;;;;;;6111259;23;20370;-86
2021/09/20 20:24:18;;;;;;;;;;;;;;;;;;;;;
2021/09/20 20:26:47;;;;;;;7.17;4.60;;;23.50;53.90;;;;;;6170481;23;20407;-86
2021/09/20 20:29:19;;;;;;;6.60;4.10;;;23.50;53.90;;;;;;6169699;23;20376;-86
2021/09/20 20:31:44;;;;;;;5.53;3.93;;;23.50;53.90;;;;;;6170907;23;20515;-86
2021/09/20 20:34:16;;;;;;;5.00;4.30;;;23.50;53.90;;;;;;6146259;23;20395;-87
2021/09/20 20:37:08;;;;;;;4.40;4.00;;;23.50;53.80;;;;;;6149501;23;20175;-86
2021/09/20 20:39:47;;;;;;;4.77;3.93;;;23.50;53.80;;;;;;6121810;23;20434;-87
2021/09/20 20:42:13;;;;;;;8.17;4.40;;;23.50;53.80;;;;;;6174509;23;20506;-87
2021/09/20 20:44:44;;;;;;;6.10;4.30;;;23.50;53.80;;;;;;6199756;23;20418;-86
2021/09/20 20:47:27;;;;;;;5.30;4.80;;;23.50;53.80;;;;;;6202170;23;20162;-87
2021/09/20 20:50:02;;;;;;;6.03;4.00;;;23.50;53.80;;;;;;6176908;23;20504;-87
2021/09/20 20:53:01;;;;;;;4.80;4.00;;;23.50;53.70;;;;;;6177582;23;20385;-87
2021/09/20 20:55:27;;;;;;;8.03;4.60;;;23.50;53.70;;;;;;6264364;22;20735;-87
2021/09/20 20:57:59;;;;;;;5.83;4.50;;;23.50;53.80;;;;;;6264581;22;20424;-87
2021/09/20 21:00:41;;;;;;;;;;;;;;;;;;;;;
2021/09/20 21:07:39;;;;;;;5.50;4.37;;;23.50;53.70;;;;;;6195689;22;20396;-86
2021/09/20 21:10:53;;;;;;;;;;;;;;;;;;;;;
2021/09/20 21:20:15;;;;;;;4.40;3.67;;;23.50;53.90;;;;;;6222518;22;20397;-87
2021/09/20 21:23:30;;;;;;;7.03;4.40;;;23.50;54.00;;;;;;6264895;22;20381;-86
2021/09/20 21:26:22;;;;;;;;;;;;;;;;;;;;;
2021/09/20 21:45:22;;;;;;;5.77;4.90;;;23.50;54.00;;;;;;6142907;23;20818;-87
2021/09/20 21:48:00;;;;;;;;;;;;;;;;;;;;;
2021/09/20 21:50:51;;;;;;;8.10;4.50;;;23.50;54.00;;;;;;6138643;23;20412;-87
2021/09/20 21:53:51;;;;;;;5.83;3.77;;;23.50;54.00;;;;;;6123214;23;20437;-89
2021/09/20 21:56:32;;;;;;;;;;;;;;;;;;;;;
2021/09/20 21:59:13;;;;;;;;;;;;;;;;;;;;;
2021/09/20 22:05:42;;;;;;;;;;;;;;;;;;;;;
2021/09/20 22:08:31;;;;;;;5.20;4.40;;;23.60;53.90;;;;;;5994205;24;20417;-88
2021/09/20 22:44:44;;;;;;;4.37;3.77;;;23.60;53.90;;;;;;5867453;24;20435;-88
2021/09/20 22:47:37;;;;;;;5.03;4.20;;;23.60;54.00;;;;;;5891929;24;20501;-88
2021/09/20 22:50:51;;;;;;;3.97;3.60;;;23.60;53.90;;;;;;5896469;23;20419;-88
2021/09/20 22:57:04;;;;;;;3.73;3.30;;;23.70;54.00;;;;;;5942604;24;20448;-87
2021/09/20 22:59:36;;;;;;;4.77;4.27;;;23.60;53.90;;;;;;5919874;24;20394;-86
2021/09/20 23:02:05;;;;;;;4.17;3.50;;;23.70;54.00;;;;;;5942069;24;20463;-87
2021/09/20 23:04:39;;;;;;;4.67;3.50;;;23.70;54.00;;;;;;5936473;24;20425;-87
2021/09/20 23:07:15;;;;;;;4.40;3.37;;;23.70;54.00;;;;;;5995422;24;20445;-87
2021/09/20 23:09:44;;;;;;;5.23;3.70;;;23.60;54.40;;;;;;5974219;24;20392;-87
2021/09/20 23:12:11;;;;;;;4.30;3.90;;;23.70;53.90;;;;;;6054782;23;21124;-87
2021/09/20 23:14:40;;;;;;;4.40;4.00;;;23.70;53.90;;;;;;6059162;23;20446;-87
2021/09/20 23:17:12;;;;;;;5.20;3.93;;;23.70;53.90;;;;;;6058145;23;20513;-87
2021/09/20 23:19:48;;;;;;;3.90;3.60;;;23.70;53.90;;;;;;6058937;23;20386;-87
2021/09/20 23:22:34;;;;;;;3.80;3.50;;;23.70;53.90;;;;;;6054877;23;20394;-87
2021/09/20 23:25:03;;;;;;;3.37;3.17;;;23.70;53.80;;;;;;6082867;23;20425;-86
2021/09/20 23:30:51;;;;;;;3.40;3.10;;;23.70;53.80;;;;;;6263426;23;20694;-86
2021/09/20 23:33:32;;;;;;;3.87;3.43;;;23.70;53.90;;;;;;6236019;23;20377;-87
2021/09/20 23:36:33;;;;;;;;;;;;;;;;;;;;;
2021/09/20 23:38:51;;;;;;;3.87;3.40;;;23.70;53.90;;;;;;6255421;22;20404;-88
2021/09/20 23:41:39;;;;;;;3.73;3.43;;;23.70;53.90;;;;;;6263015;23;20365;-88
2021/09/20 23:47:52;;;;;;;4.07;3.67;;;23.70;53.90;;;;;;6273026;23;20345;-88
2021/09/20 23:57:27;;;;;;;3.30;2.97;;;23.70;54.00;;;;;;6140519;23;20373;-88
2021/09/20 23:59:59;;;;;;;3.60;3.30;;;23.70;54.00;;;;;;6141419;23;20392;-88
